sensor_id;sensor_type;location;lat;lon;timestamp;pressure;altitude;pressure_sealevel;temperature;humidity
73692;BME280;61996;49.910;35.562;2023-09-08T00:01:32;100160.09;;;21.32;45.79
73692;BME280;61996;49.910;35.562;2023-09-08T00:04:34;100155.72;;;21.31;45.72
73692;BME280;61996;49.910;35.562;2023-09-08T00:07:37;100157.72;;;21.29;45.75
73692;BME280;61996;49.910;35.562;2023-09-08T00:10:40;100154.59;;;21.34;45.71
73692;BME280;61996;49.910;35.562;2023-09-08T00:13:44;100153.88;;;21.32;45.68
73692;BME280;61996;49.910;35.562;2023-09-08T00:16:47;100162.75;;;21.32;45.69
73692;BME280;61996;49.910;35.562;2023-09-08T00:19:50;100150.38;;;21.31;45.68
73692;BME280;61996;49.910;35.562;2023-09-08T00:22:53;100153.88;;;21.32;45.54
73692;BME280;61996;49.910;35.562;2023-09-08T00:25:56;100152.91;;;21.33;45.83
73692;BME280;61996;49.910;35.562;2023-09-08T00:29:01;100160.66;;;21.36;45.49
73692;BME280;61996;49.910;35.562;2023-09-08T00:32:04;100150.22;;;21.33;45.68
73692;BME280;61996;49.910;35.562;2023-09-08T00:35:10;100149.38;;;21.32;45.61
73692;BME280;61996;49.910;35.562;2023-09-08T00:38:13;100151.78;;;21.36;45.73
73692;BME280;61996;49.910;35.562;2023-09-08T00:41:16;100148.38;;;21.33;45.55
73692;BME280;61996;49.910;35.562;2023-09-08T00:44:20;100147.41;;;21.34;45.52
73692;BME280;61996;49.910;35.562;2023-09-08T00:47:23;100146.44;;;21.36;46.46
73692;BME280;61996;49.910;35.562;2023-09-08T00:50:26;100148.28;;;21.35;45.86
73692;BME280;61996;49.910;35.562;2023-09-08T00:53:29;100143.34;;;21.30;45.73
73692;BME280;61996;49.910;35.562;2023-09-08T00:56:32;100143.56;;;21.27;45.82
73692;BME280;61996;49.910;35.562;2023-09-08T00:59:36;100147.25;;;21.26;46.00
73692;BME280;61996;49.910;35.562;2023-09-08T01:02:39;100149.38;;;21.23;46.21
73692;BME280;61996;49.910;35.562;2023-09-08T01:05:43;100145.28;;;21.19;46.31
73692;BME280;61996;49.910;35.562;2023-09-08T01:08:48;100154.44;;;21.16;46.35
73692;BME280;61996;49.910;35.562;2023-09-08T01:11:51;100151.75;;;21.16;46.19
73692;BME280;61996;49.910;35.562;2023-09-08T01:14:58;100143.88;;;21.15;46.38
73692;BME280;61996;49.910;35.562;2023-09-08T01:18:01;100141.91;;;21.17;46.23
73692;BME280;61996;49.910;35.562;2023-09-08T01:21:17;100145.41;;;21.17;46.24
73692;BME280;61996;49.910;35.562;2023-09-08T01:24:32;100148.09;;;21.17;46.30
73692;BME280;61996;49.910;35.562;2023-09-08T01:27:43;100149.78;;;21.18;46.08
73692;BME280;61996;49.910;35.562;2023-09-08T01:30:47;100148.09;;;21.17;46.05
73692;BME280;61996;49.910;35.562;2023-09-08T01:33:50;100147.25;;;21.17;46.16
73692;BME280;61996;49.910;35.562;2023-09-08T01:36:53;100139.38;;;21.15;46.06
73692;BME280;61996;49.910;35.562;2023-09-08T01:39:57;100144.00;;;21.13;46.16
73692;BME280;61996;49.910;35.562;2023-09-08T01:43:01;100140.38;;;21.14;46.33
73692;BME280;61996;49.910;35.562;2023-09-08T01:46:04;100140.63;;;21.11;46.24
73692;BME280;61996;49.910;35.562;2023-09-08T01:49:07;100139.66;;;21.12;46.07
73692;BME280;61996;49.910;35.562;2023-09-08T01:52:10;100136.28;;;21.10;46.29
73692;BME280;61996;49.910;35.562;2023-09-08T01:55:13;100128.25;;;21.10;46.12
73692;BME280;61996;49.910;35.562;2023-09-08T01:58:19;100136.56;;;21.07;46.22
73692;BME280;61996;49.910;35.562;2023-09-08T02:01:21;100125.88;;;21.07;46.36
73692;BME280;61996;49.910;35.562;2023-09-08T02:04:24;100126.56;;;21.09;46.32
73692;BME280;61996;49.910;35.562;2023-09-08T02:07:27;100131.22;;;21.07;46.21
73692;BME280;61996;49.910;35.562;2023-09-08T02:10:30;100122.31;;;21.06;46.11
73692;BME280;61996;49.910;35.562;2023-09-08T02:13:34;100121.63;;;21.04;46.24
73692;BME280;61996;49.910;35.562;2023-09-08T02:16:37;100119.09;;;21.03;46.13
73692;BME280;61996;49.910;35.562;2023-09-08T02:19:41;100112.63;;;21.05;46.11
73692;BME280;61996;49.910;35.562;2023-09-08T02:22:44;100117.56;;;21.00;46.37
73692;BME280;61996;49.910;35.562;2023-09-08T02:25:49;100127.41;;;21.00;46.28
73692;BME280;61996;49.910;35.562;2023-09-08T02:28:53;100131.78;;;21.01;46.17
73692;BME280;61996;49.910;35.562;2023-09-08T02:31:56;100126.69;;;20.98;46.20
73692;BME280;61996;49.910;35.562;2023-09-08T02:34:59;100133.72;;;20.99;46.31
73692;BME280;61996;49.910;35.562;2023-09-08T02:38:02;100132.06;;;20.98;46.43
73692;BME280;61996;49.910;35.562;2023-09-08T02:41:05;100125.03;;;20.97;46.37
73692;BME280;61996;49.910;35.562;2023-09-08T02:44:09;100126.16;;;21.04;46.57
73692;BME280;61996;49.910;35.562;2023-09-08T02:47:12;100129.38;;;20.98;46.45
73692;BME280;61996;49.910;35.562;2023-09-08T02:50:15;100118.25;;;20.93;46.50
73692;BME280;61996;49.910;35.562;2023-09-08T02:53:17;100125.31;;;20.94;46.52
73692;BME280;61996;49.910;35.562;2023-09-08T02:56:20;100122.75;;;20.92;46.32
73692;BME280;61996;49.910;35.562;2023-09-08T02:59:24;100121.78;;;20.93;46.55
73692;BME280;61996;49.910;35.562;2023-09-08T03:02:27;100127.97;;;20.94;46.33
73692;BME280;61996;49.910;35.562;2023-09-08T03:05:31;100129.94;;;20.92;46.54
73692;BME280;61996;49.910;35.562;2023-09-08T03:08:34;100128.41;;;20.89;46.51
73692;BME280;61996;49.910;35.562;2023-09-08T03:11:38;100133.75;;;20.89;46.60
73692;BME280;61996;49.910;35.562;2023-09-08T03:14:42;100138.53;;;20.95;46.33
73692;BME280;61996;49.910;35.562;2023-09-08T03:17:46;100132.75;;;20.90;46.47
73692;BME280;61996;49.910;35.562;2023-09-08T03:20:49;100136.56;;;20.97;46.76
73692;BME280;61996;49.910;35.562;2023-09-08T03:23:52;100128.69;;;20.96;46.79
73692;BME280;61996;49.910;35.562;2023-09-08T03:26:55;100120.81;;;20.94;46.39
73692;BME280;61996;49.910;35.562;2023-09-08T03:30:00;100125.56;;;20.91;46.52
73692;BME280;61996;49.910;35.562;2023-09-08T03:33:04;100129.53;;;20.87;46.83
73692;BME280;61996;49.910;35.562;2023-09-08T03:36:07;100134.59;;;20.90;46.80
73692;BME280;61996;49.910;35.562;2023-09-08T03:39:10;100130.22;;;20.89;46.61
73692;BME280;61996;49.910;35.562;2023-09-08T03:42:13;100132.91;;;20.89;46.75
73692;BME280;61996;49.910;35.562;2023-09-08T03:45:17;100126.97;;;20.85;46.83
73692;BME280;61996;49.910;35.562;2023-09-08T03:48:20;100127.81;;;20.86;46.70
73692;BME280;61996;49.910;35.562;2023-09-08T03:51:23;100116.56;;;20.82;46.78
73692;BME280;61996;49.910;35.562;2023-09-08T03:54:26;100123.47;;;20.85;46.76
73692;BME280;61996;49.910;35.562;2023-09-08T03:57:28;100122.75;;;20.83;46.62
73692;BME280;61996;49.910;35.562;2023-09-08T04:00:33;100121.06;;;20.82;46.82
73692;BME280;61996;49.910;35.562;2023-09-08T04:03:36;100109.81;;;20.78;46.93
73692;BME280;61996;49.910;35.562;2023-09-08T04:06:39;100114.31;;;20.77;46.76
73692;BME280;61996;49.910;35.562;2023-09-08T04:09:42;100112.38;;;20.79;46.81
73692;BME280;61996;49.910;35.562;2023-09-08T04:12:45;100115.47;;;20.94;46.79
73692;BME280;61996;49.910;35.562;2023-09-08T04:15:49;100114.88;;;20.91;46.86
73692;BME280;61996;49.910;35.562;2023-09-08T04:18:52;100101.81;;;20.88;46.81
73692;BME280;61996;49.910;35.562;2023-09-08T04:21:57;100110.94;;;20.85;46.43
73692;BME280;61996;49.910;35.562;2023-09-08T04:25:00;100104.88;;;20.83;46.76
73692;BME280;61996;49.910;35.562;2023-09-08T04:28:03;100118.13;;;20.85;46.70
73692;BME280;61996;49.910;35.562;2023-09-08T04:31:07;100110.53;;;20.90;46.91
73692;BME280;61996;49.910;35.562;2023-09-08T04:34:10;100111.22;;;20.92;46.67
73692;BME280;61996;49.910;35.562;2023-09-08T04:37:13;100115.88;;;20.90;46.44
73692;BME280;61996;49.910;35.562;2023-09-08T04:40:16;100115.88;;;20.90;46.71
73692;BME280;61996;49.910;35.562;2023-09-08T04:43:19;100122.06;;;20.90;46.68
73692;BME280;61996;49.910;35.562;2023-09-08T04:46:23;100122.63;;;20.94;46.57
73692;BME280;61996;49.910;35.562;2023-09-08T04:49:26;100114.88;;;20.91;46.46
73692;BME280;61996;49.910;35.562;2023-09-08T04:52:30;100119.38;;;20.90;46.53
73692;BME280;61996;49.910;35.562;2023-09-08T04:55:33;100117.69;;;20.89;46.72
73692;BME280;61996;49.910;35.562;2023-09-08T04:58:35;100117.56;;;20.91;46.65
73692;BME280;61996;49.910;35.562;2023-09-08T05:01:39;100118.25;;;20.93;46.82
73692;BME280;61996;49.910;35.562;2023-09-08T05:04:42;100108.44;;;20.93;46.72
73692;BME280;61996;49.910;35.562;2023-09-08T05:07:45;100103.19;;;20.92;46.78
73692;BME280;61996;49.910;35.562;2023-09-08T05:10:49;100106.59;;;20.94;46.48
73692;BME280;61996;49.910;35.562;2023-09-08T05:13:52;100102.78;;;20.96;46.68
73692;BME280;61996;49.910;35.562;2023-09-08T05:16:56;100100.94;;;20.97;46.69
73692;BME280;61996;49.910;35.562;2023-09-08T05:19:59;100099.97;;;20.98;46.61
73692;BME280;61996;49.910;35.562;2023-09-08T05:23:02;100102.63;;;20.98;46.52
73692;BME280;61996;49.910;35.562;2023-09-08T05:26:05;100106.31;;;20.97;46.49
73692;BME280;61996;49.910;35.562;2023-09-08T05:29:07;100097.28;;;20.98;46.52
73692;BME280;61996;49.910;35.562;2023-09-08T05:32:12;100103.31;;;21.00;46.41
73692;BME280;61996;49.910;35.562;2023-09-08T05:35:15;100101.78;;;20.97;46.39
73692;BME280;61996;49.910;35.562;2023-09-08T05:38:18;100103.31;;;21.00;46.54
73692;BME280;61996;49.910;35.562;2023-09-08T05:41:21;100108.69;;;21.00;46.33
73692;BME280;61996;49.910;35.562;2023-09-08T05:44:24;100101.53;;;21.00;46.47
73692;BME280;61996;49.910;35.562;2023-09-08T05:47:28;100108.41;;;21.03;46.44
73692;BME280;61996;49.910;35.562;2023-09-08T05:50:32;100106.44;;;21.05;46.30
73692;BME280;61996;49.910;35.562;2023-09-08T05:53:35;100104.75;;;21.04;46.55
73692;BME280;61996;49.910;35.562;2023-09-08T05:56:41;100103.06;;;21.03;46.46
73692;BME280;61996;49.910;35.562;2023-09-08T05:59:43;100098.41;;;21.05;46.46
73692;BME280;61996;49.910;35.562;2023-09-08T06:02:48;100102.78;;;21.06;46.71
73692;BME280;61996;49.910;35.562;2023-09-08T06:05:51;100094.91;;;21.04;46.57
73692;BME280;61996;49.910;35.562;2023-09-08T06:08:54;100088.44;;;21.07;46.23
73692;BME280;61996;49.910;35.562;2023-09-08T06:11:56;100083.63;;;21.11;46.86
73692;BME280;61996;49.910;35.562;2023-09-08T06:14:59;100078.69;;;21.06;46.52
73692;BME280;61996;49.910;35.562;2023-09-08T06:18:04;100089.41;;;21.06;46.57
73692;BME280;61996;49.910;35.562;2023-09-08T06:21:07;100085.88;;;21.05;46.83
73692;BME280;61996;49.910;35.562;2023-09-08T06:24:10;100074.06;;;21.08;46.61
73692;BME280;61996;49.910;35.562;2023-09-08T06:27:13;100082.78;;;21.10;46.43
73692;BME280;61996;49.910;35.562;2023-09-08T06:30:16;100076.75;;;21.08;46.38
73692;BME280;61996;49.910;35.562;2023-09-08T06:33:21;100068.44;;;21.11;46.62
73692;BME280;61996;49.910;35.562;2023-09-08T06:36:25;100072.41;;;21.07;45.98
73692;BME280;61996;49.910;35.562;2023-09-08T06:39:28;100076.59;;;21.10;46.28
73692;BME280;61996;49.910;35.562;2023-09-08T06:42:31;100056.88;;;21.11;46.02
73692;BME280;61996;49.910;35.562;2023-09-08T06:45:34;100055.06;;;21.11;46.17
73692;BME280;61996;49.910;35.562;2023-09-08T06:48:38;100064.22;;;21.08;45.86
73692;BME280;61996;49.910;35.562;2023-09-08T06:51:41;100055.06;;;21.11;45.86
73692;BME280;61996;49.910;35.562;2023-09-08T06:54:43;100048.72;;;21.12;45.80
73692;BME280;61996;49.910;35.562;2023-09-08T06:57:47;100044.22;;;21.13;45.98
73692;BME280;61996;49.910;35.562;2023-09-08T07:00:50;100042.69;;;21.10;45.52
73692;BME280;61996;49.910;35.562;2023-09-08T07:03:57;100045.66;;;21.07;45.57
73692;BME280;61996;49.910;35.562;2023-09-08T07:07:00;100045.06;;;21.13;45.94
73692;BME280;61996;49.910;35.562;2023-09-08T07:10:05;100040.53;;;21.14;45.77
73692;BME280;61996;49.910;35.562;2023-09-08T07:13:08;100031.69;;;21.13;45.64
73692;BME280;61996;49.910;35.562;2023-09-08T07:16:12;100038.59;;;21.16;45.39
73692;BME280;61996;49.910;35.562;2023-09-08T07:19:16;100034.94;;;21.17;45.79
73692;BME280;61996;49.910;35.562;2023-09-08T07:22:19;100031.41;;;21.16;45.49
73692;BME280;61996;49.910;35.562;2023-09-08T07:25:22;100018.88;;;21.17;45.59
73692;BME280;61996;49.910;35.562;2023-09-08T07:28:25;100017.03;;;21.17;45.34
73692;BME280;61996;49.910;35.562;2023-09-08T07:31:27;100019.72;;;21.17;45.43
73692;BME280;61996;49.910;35.562;2023-09-08T07:34:32;100012.53;;;21.18;45.51
73692;BME280;61996;49.910;35.562;2023-09-08T07:37:34;100003.38;;;21.20;45.26
73692;BME280;61996;49.910;35.562;2023-09-08T07:40:37;100017.47;;;21.22;45.42
73692;BME280;61996;49.910;35.562;2023-09-08T07:43:40;99998.84;;;21.21;45.31
73692;BME280;61996;49.910;35.562;2023-09-08T07:46:44;100000.56;;;21.22;45.18
73692;BME280;61996;49.910;35.562;2023-09-08T07:49:49;99997.06;;;21.21;45.21
73692;BME280;61996;49.910;35.562;2023-09-08T07:52:52;99994.38;;;21.21;45.02
73692;BME280;61996;49.910;35.562;2023-09-08T07:55:55;100000.41;;;21.23;45.39
73692;BME280;61996;49.910;35.562;2023-09-08T07:58:58;99996.75;;;21.24;45.57
73692;BME280;61996;49.910;35.562;2023-09-08T08:02:01;99993.22;;;21.24;45.26
73692;BME280;61996;49.910;35.562;2023-09-08T08:05:06;99997.59;;;21.25;45.24
73692;BME280;61996;49.910;35.562;2023-09-08T08:08:10;99995.75;;;21.25;45.25
73692;BME280;61996;49.910;35.562;2023-09-08T08:11:14;99974.34;;;21.25;45.39
73692;BME280;61996;49.910;35.562;2023-09-08T08:14:17;99985.06;;;21.25;45.13
73692;BME280;61996;49.910;35.562;2023-09-08T08:17:20;99981.53;;;21.25;44.95
73692;BME280;61996;49.910;35.562;2023-09-08T08:20:24;99966.34;;;21.25;45.17
73692;BME280;61996;49.910;35.562;2023-09-08T08:23:27;99964.50;;;21.26;44.96
73692;BME280;61996;49.910;35.562;2023-09-08T08:26:30;99968.00;;;21.26;45.03
73692;BME280;61996;49.910;35.562;2023-09-08T08:29:34;99961.44;;;21.30;44.89
73692;BME280;61996;49.910;35.562;2023-09-08T08:32:37;99959.59;;;21.31;45.06
73692;BME280;61996;49.910;35.562;2023-09-08T08:35:46;99962.28;;;21.31;44.80
73692;BME280;61996;49.910;35.562;2023-09-08T08:38:50;99962.97;;;21.33;44.93
73692;BME280;61996;49.910;35.562;2023-09-08T08:41:53;99964.78;;;21.32;44.46
73692;BME280;61996;49.910;35.562;2023-09-08T08:44:56;99962.81;;;21.34;44.87
73692;BME280;61996;49.910;35.562;2023-09-08T08:48:00;99943.38;;;21.32;44.79
73692;BME280;61996;49.910;35.562;2023-09-08T08:51:05;99945.78;;;21.36;44.71
73692;BME280;61996;49.910;35.562;2023-09-08T08:54:11;99944.06;;;21.34;44.28
73692;BME280;61996;49.910;35.562;2023-09-08T08:57:14;99933.38;;;21.34;44.00
73692;BME280;61996;49.910;35.562;2023-09-08T09:00:17;99934.63;;;21.40;44.52
73692;BME280;61996;49.910;35.562;2023-09-08T09:03:20;99934.78;;;21.39;44.21
73692;BME280;61996;49.910;35.562;2023-09-08T09:06:25;99926.44;;;21.42;44.66
73692;BME280;61996;49.910;35.562;2023-09-08T09:09:28;99928.84;;;21.45;44.09
73692;BME280;61996;49.910;35.562;2023-09-08T09:12:31;99923.63;;;21.43;43.56
73692;BME280;61996;49.910;35.562;2023-09-08T09:15:33;99917.13;;;21.46;43.60
73692;BME280;61996;49.910;35.562;2023-09-08T09:18:47;99914.63;;;21.44;43.28
73692;BME280;61996;49.910;35.562;2023-09-08T09:21:57;99925.00;;;21.47;43.66
73692;BME280;61996;49.910;35.562;2023-09-08T09:25:00;99914.03;;;21.50;43.31
73692;BME280;61996;49.910;35.562;2023-09-08T09:28:06;99905.28;;;21.48;42.79
73692;BME280;61996;49.910;35.562;2023-09-08T09:31:09;99907.53;;;21.53;42.87
73692;BME280;61996;49.910;35.562;2023-09-08T09:34:12;99904.16;;;21.51;42.65
73692;BME280;61996;49.910;35.562;2023-09-08T09:37:17;99899.34;;;21.54;43.18
73692;BME280;61996;49.910;35.562;2023-09-08T09:40:20;99910.75;;;21.56;43.42
73692;BME280;61996;49.910;35.562;2023-09-08T09:43:23;99896.53;;;21.56;41.58
73692;BME280;61996;49.910;35.562;2023-09-08T09:46:27;99891.56;;;21.61;41.59
73692;BME280;61996;49.910;35.562;2023-09-08T09:49:30;99881.84;;;21.60;42.24
73692;BME280;61996;49.910;35.562;2023-09-08T09:52:35;99879.16;;;21.60;41.95
73692;BME280;61996;49.910;35.562;2023-09-08T09:55:42;99887.03;;;21.61;42.18
73692;BME280;61996;49.910;35.562;2023-09-08T09:58:45;99877.06;;;21.64;42.19
73692;BME280;61996;49.910;35.562;2023-09-08T10:01:49;99876.22;;;21.63;41.68
73692;BME280;61996;49.910;35.562;2023-09-08T10:04:53;99867.19;;;21.64;43.03
73692;BME280;61996;49.910;35.562;2023-09-08T10:07:57;99877.88;;;21.64;44.15
73692;BME280;61996;49.910;35.562;2023-09-08T10:11:00;99873.66;;;21.61;44.92
73692;BME280;61996;49.910;35.562;2023-09-08T10:14:06;99872.53;;;21.64;45.13
73692;BME280;61996;49.910;35.562;2023-09-08T10:17:15;99869.38;;;21.69;44.21
73692;BME280;61996;49.910;35.562;2023-09-08T10:20:19;99861.81;;;21.64;45.04
73692;BME280;61996;49.910;35.562;2023-09-08T10:23:26;99863.19;;;21.68;44.61
73692;BME280;61996;49.910;35.562;2023-09-08T10:26:30;99854.16;;;21.69;45.22
73692;BME280;61996;49.910;35.562;2023-09-08T10:29:33;99854.88;;;21.71;44.79
73692;BME280;61996;49.910;35.562;2023-09-08T10:32:37;99860.06;;;21.73;45.13
73692;BME280;61996;49.910;35.562;2023-09-08T10:35:42;99854.72;;;21.73;45.09
73692;BME280;61996;49.910;35.562;2023-09-08T10:38:47;99846.69;;;21.73;45.08
73692;BME280;61996;49.910;35.562;2023-09-08T10:41:53;99841.16;;;21.74;44.33
73692;BME280;61996;49.910;35.562;2023-09-08T10:45:15;99830.19;;;21.77;44.44
73692;BME280;61996;49.910;35.562;2023-09-08T10:48:19;99830.84;;;21.79;44.99
73692;BME280;61996;49.910;35.562;2023-09-08T10:51:22;99826.03;;;21.83;45.03
73692;BME280;61996;49.910;35.562;2023-09-08T10:54:44;99833.09;;;21.84;44.58
73692;BME280;61996;49.910;35.562;2023-09-08T10:57:47;99831.94;;;21.86;44.42
73692;BME280;61996;49.910;35.562;2023-09-08T11:00:51;99829.09;;;21.88;42.91
73692;BME280;61996;49.910;35.562;2023-09-08T11:03:57;99817.25;;;21.91;43.05
73692;BME280;61996;49.910;35.562;2023-09-08T11:07:00;99819.06;;;21.90;43.74
73692;BME280;61996;49.910;35.562;2023-09-08T11:10:06;99817.25;;;21.91;44.21
73692;BME280;61996;49.910;35.562;2023-09-08T11:13:09;99808.22;;;21.92;44.56
73692;BME280;61996;49.910;35.562;2023-09-08T11:16:13;99790.47;;;21.91;44.55
73692;BME280;61996;49.910;35.562;2023-09-08T11:19:16;99783.13;;;21.93;44.74
73692;BME280;61996;49.910;35.562;2023-09-08T11:22:21;99775.94;;;21.93;43.98
73692;BME280;61996;49.910;35.562;2023-09-08T11:25:26;99779.81;;;21.99;43.51
73692;BME280;61996;49.910;35.562;2023-09-08T11:28:29;99773.63;;;21.98;43.79
73692;BME280;61996;49.910;35.562;2023-09-08T11:31:32;99774.31;;;22.00;43.69
73692;BME280;61996;49.910;35.562;2023-09-08T11:34:36;99768.13;;;22.00;44.08
73692;BME280;61996;49.910;35.562;2023-09-08T11:37:40;99771.78;;;21.99;44.22
73692;BME280;61996;49.910;35.562;2023-09-08T11:40:44;99766.28;;;22.00;44.21
73692;BME280;61996;49.910;35.562;2023-09-08T11:43:47;99752.72;;;22.02;44.06
73692;BME280;61996;49.910;35.562;2023-09-08T11:46:50;99748.03;;;22.04;44.22
73692;BME280;61996;49.910;35.562;2023-09-08T11:49:53;99742.56;;;22.05;44.21
73692;BME280;61996;49.910;35.562;2023-09-08T11:52:56;99736.19;;;22.06;44.18
73692;BME280;61996;49.910;35.562;2023-09-08T11:56:01;99729.00;;;22.07;43.90
73692;BME280;61996;49.910;35.562;2023-09-08T11:59:05;99734.88;;;22.10;44.16
73692;BME280;61996;49.910;35.562;2023-09-08T12:02:07;99725.03;;;22.11;43.95
73692;BME280;61996;49.910;35.562;2023-09-08T12:05:19;99720.38;;;22.13;44.08
73692;BME280;61996;49.910;35.562;2023-09-08T12:08:24;99717.69;;;22.13;44.28
73692;BME280;61996;49.910;35.562;2023-09-08T12:11:32;99703.28;;;22.14;43.79
73692;BME280;61996;49.910;35.562;2023-09-08T12:14:39;99697.78;;;22.15;44.22
73692;BME280;61996;49.910;35.562;2023-09-08T12:17:47;99704.50;;;22.20;43.65
73692;BME280;61996;49.910;35.562;2023-09-08T12:21:02;99698.97;;;22.21;43.96
73692;BME280;61996;49.910;35.562;2023-09-08T12:24:06;99708.03;;;22.20;43.86
73692;BME280;61996;49.910;35.562;2023-09-08T12:27:10;99706.84;;;22.23;43.99
73692;BME280;61996;49.910;35.562;2023-09-08T12:30:16;99708.69;;;22.22;44.35
73692;BME280;61996;49.910;35.562;2023-09-08T12:33:19;99690.59;;;22.24;44.24
73692;BME280;61996;49.910;35.562;2023-09-08T12:36:23;99686.94;;;22.25;44.23
73692;BME280;61996;49.910;35.562;2023-09-08T12:39:25;99684.78;;;22.29;44.06
73692;BME280;61996;49.910;35.562;2023-09-08T12:42:30;99682.94;;;22.29;44.24
73692;BME280;61996;49.910;35.562;2023-09-08T12:45:35;99675.75;;;22.30;44.22
73692;BME280;61996;49.910;35.562;2023-09-08T12:48:38;99684.63;;;22.30;44.64
73692;BME280;61996;49.910;35.562;2023-09-08T12:51:41;99669.25;;;22.32;44.12
73692;BME280;61996;49.910;35.562;2023-09-08T12:54:44;99675.78;;;22.38;43.67
73692;BME280;61996;49.910;35.562;2023-09-08T12:57:48;99669.75;;;22.36;43.52
73692;BME280;61996;49.910;35.562;2023-09-08T13:00:53;99658.88;;;22.37;44.00
73692;BME280;61996;49.910;35.562;2023-09-08T13:03:56;99648.16;;;22.37;43.63
73692;BME280;61996;49.910;35.562;2023-09-08T13:06:59;99643.50;;;22.39;43.67
73692;BME280;61996;49.910;35.562;2023-09-08T13:10:03;99644.31;;;22.40;43.86
73692;BME280;61996;49.910;35.562;2023-09-08T13:13:07;99646.34;;;22.46;43.88
73692;BME280;61996;49.910;35.562;2023-09-08T13:16:10;99633.13;;;22.53;44.12
73692;BME280;61996;49.910;35.562;2023-09-08T13:19:13;99634.09;;;22.43;43.79
73692;BME280;61996;49.910;35.562;2023-09-08T13:22:16;99641.66;;;22.40;44.20
73692;BME280;61996;49.910;35.562;2023-09-08T13:25:19;99629.75;;;22.42;44.21
73692;BME280;61996;49.910;35.562;2023-09-08T13:28:23;99627.06;;;22.42;44.33
73692;BME280;61996;49.910;35.562;2023-09-08T13:31:26;99624.41;;;22.51;43.69
73692;BME280;61996;49.910;35.562;2023-09-08T13:34:29;99620.09;;;22.58;43.53
73692;BME280;61996;49.910;35.562;2023-09-08T13:37:32;99619.06;;;22.51;43.66
73692;BME280;61996;49.910;35.562;2023-09-08T13:40:36;99611.38;;;22.56;43.68
73692;BME280;61996;49.910;35.562;2023-09-08T13:43:40;99602.13;;;22.50;44.21
73692;BME280;61996;49.910;35.562;2023-09-08T13:46:47;99607.03;;;22.55;42.04
73692;BME280;61996;49.910;35.562;2023-09-08T13:49:50;99594.47;;;22.55;43.99
73692;BME280;61996;49.910;35.562;2023-09-08T13:52:58;99600.13;;;22.52;43.62
73692;BME280;61996;49.910;35.562;2023-09-08T13:56:04;99595.59;;;22.53;43.57
73692;BME280;61996;49.910;35.562;2023-09-08T13:59:11;99604.50;;;22.53;43.42
73692;BME280;61996;49.910;35.562;2023-09-08T14:02:19;99586.06;;;22.58;42.87
73692;BME280;61996;49.910;35.562;2023-09-08T14:05:25;99581.38;;;22.52;43.08
73692;BME280;61996;49.910;35.562;2023-09-08T14:08:35;99589.28;;;22.54;43.49
73692;BME280;61996;49.910;35.562;2023-09-08T14:11:58;99592.91;;;22.53;43.47
73692;BME280;61996;49.910;35.562;2023-09-08T14:15:05;99597.63;;;22.59;43.47
73692;BME280;61996;49.910;35.562;2023-09-08T14:18:09;99586.25;;;22.57;42.12
73692;BME280;61996;49.910;35.562;2023-09-08T14:21:12;99583.56;;;22.57;42.76
73692;BME280;61996;49.910;35.562;2023-09-08T14:24:15;99588.25;;;22.55;42.60
73692;BME280;61996;49.910;35.562;2023-09-08T14:27:17;99575.88;;;22.54;42.05
73692;BME280;61996;49.910;35.562;2023-09-08T14:30:22;99591.94;;;22.54;42.30
73692;BME280;61996;49.910;35.562;2023-09-08T14:33:25;99581.53;;;22.51;42.31
73692;BME280;61996;49.910;35.562;2023-09-08T14:36:28;99581.53;;;22.51;41.98
73692;BME280;61996;49.910;35.562;2023-09-08T14:39:30;99562.78;;;22.51;42.24
73692;BME280;61996;49.910;35.562;2023-09-08T14:42:33;99562.94;;;22.49;41.85
73692;BME280;61996;49.910;35.562;2023-09-08T14:45:38;99569.66;;;22.53;43.29
73692;BME280;61996;49.910;35.562;2023-09-08T14:48:40;99554.75;;;22.51;42.58
73692;BME280;61996;49.910;35.562;2023-09-08T14:51:43;99562.28;;;22.47;42.39
73692;BME280;61996;49.910;35.562;2023-09-08T14:54:46;99559.59;;;22.47;43.23
73692;BME280;61996;49.910;35.562;2023-09-08T14:57:49;99551.03;;;22.43;42.31
73692;BME280;61996;49.910;35.562;2023-09-08T15:00:53;99553.41;;;22.47;42.70
73692;BME280;61996;49.910;35.562;2023-09-08T15:03:56;99552.53;;;22.46;42.86
73692;BME280;61996;49.910;35.562;2023-09-08T15:06:59;99547.53;;;22.43;41.64
73692;BME280;61996;49.910;35.562;2023-09-08T15:10:02;99541.66;;;22.39;42.06
73692;BME280;61996;49.910;35.562;2023-09-08T15:13:05;99542.34;;;22.41;42.51
73692;BME280;61996;49.910;35.562;2023-09-08T15:16:10;99541.50;;;22.41;41.88
73692;BME280;61996;49.910;35.562;2023-09-08T15:19:13;99548.19;;;22.37;42.43
73692;BME280;61996;49.910;35.562;2023-09-08T15:22:15;99531.25;;;22.36;43.35
73692;BME280;61996;49.910;35.562;2023-09-08T15:25:19;99536.63;;;22.36;42.59
73692;BME280;61996;49.910;35.562;2023-09-08T15:28:22;99540.31;;;22.35;42.25
73692;BME280;61996;49.910;35.562;2023-09-08T15:31:26;99533.78;;;22.38;42.83
73692;BME280;61996;49.910;35.562;2023-09-08T15:34:29;99536.13;;;22.33;42.53
73692;BME280;61996;49.910;35.562;2023-09-08T15:37:32;99539.78;;;22.32;42.40
73692;BME280;61996;49.910;35.562;2023-09-08T15:40:37;99531.91;;;22.30;42.58
73692;BME280;61996;49.910;35.562;2023-09-08T15:43:40;99531.25;;;22.28;43.26
73692;BME280;61996;49.910;35.562;2023-09-08T15:46:44;99536.44;;;22.30;42.66
73692;BME280;61996;49.910;35.562;2023-09-08T15:49:47;99533.41;;;22.25;43.38
73692;BME280;61996;49.910;35.562;2023-09-08T15:52:50;99538.94;;;22.31;43.13
73692;BME280;61996;49.910;35.562;2023-09-08T15:55:53;99531.72;;;22.24;44.14